sensor_id;sensor_type;location;lat;lon;timestamp;temperature;humidity
3418;DHT22;68007;51.312;12.372;2023-05-07T00:00:30;16.20;77.70
3418;DHT22;68007;51.312;12.372;2023-05-07T00:02:57;16.10;77.50
3418;DHT22;68007;51.312;12.372;2023-05-07T00:05:25;16.10;77.60
3418;DHT22;68007;51.312;12.372;2023-05-07T00:07:54;16.10;77.60
3418;DHT22;68007;51.312;12.372;2023-05-07T00:10:21;16.10;77.50
3418;DHT22;68007;51.312;12.372;2023-05-07T00:12:49;16.10;77.70
3418;DHT22;68007;51.312;12.372;2023-05-07T00:15:16;16.10;77.80
3418;DHT22;68007;51.312;12.372;2023-05-07T00:17:44;16.00;77.90
3418;DHT22;68007;51.312;12.372;2023-05-07T00:20:11;16.00;77.80
3418;DHT22;68007;51.312;12.372;2023-05-07T00:22:39;15.90;77.60
3418;DHT22;68007;51.312;12.372;2023-05-07T00:25:08;15.90;77.70
3418;DHT22;68007;51.312;12.372;2023-05-07T00:27:36;15.90;77.40
3418;DHT22;68007;51.312;12.372;2023-05-07T00:30:05;15.90;77.40
3418;DHT22;68007;51.312;12.372;2023-05-07T00:32:33;15.90;77.20
3418;DHT22;68007;51.312;12.372;2023-05-07T00:35:00;15.90;77.00
3418;DHT22;68007;51.312;12.372;2023-05-07T00:37:28;15.80;76.90
3418;DHT22;68007;51.312;12.372;2023-05-07T00:39:56;15.80;76.80
3418;DHT22;68007;51.312;12.372;2023-05-07T00:42:25;15.80;76.80
3418;DHT22;68007;51.312;12.372;2023-05-07T00:44:52;15.80;76.80
3418;DHT22;68007;51.312;12.372;2023-05-07T00:47:20;15.80;77.00
3418;DHT22;68007;51.312;12.372;2023-05-07T00:49:47;15.70;76.80
3418;DHT22;68007;51.312;12.372;2023-05-07T00:52:17;15.70;76.80
3418;DHT22;68007;51.312;12.372;2023-05-07T00:54:44;15.70;76.90
3418;DHT22;68007;51.312;12.372;2023-05-07T00:57:12;15.70;76.90
3418;DHT22;68007;51.312;12.372;2023-05-07T00:59:41;15.70;76.90
3418;DHT22;68007;51.312;12.372;2023-05-07T01:02:09;15.70;77.00
3418;DHT22;68007;51.312;12.372;2023-05-07T01:04:37;15.60;76.90
3418;DHT22;68007;51.312;12.372;2023-05-07T01:07:05;15.70;77.60
3418;DHT22;68007;51.312;12.372;2023-05-07T01:09:33;15.60;77.00
3418;DHT22;68007;51.312;12.372;2023-05-07T01:12:01;15.60;77.10
3418;DHT22;68007;51.312;12.372;2023-05-07T01:14:29;15.60;77.20
3418;DHT22;68007;51.312;12.372;2023-05-07T01:16:58;15.50;77.30
3418;DHT22;68007;51.312;12.372;2023-05-07T01:19:26;15.50;77.30
3418;DHT22;68007;51.312;12.372;2023-05-07T01:22:00;15.50;77.30
3418;DHT22;68007;51.312;12.372;2023-05-07T01:24:30;15.50;77.30
3418;DHT22;68007;51.312;12.372;2023-05-07T01:26:58;15.50;77.40
3418;DHT22;68007;51.312;12.372;2023-05-07T01:29:27;15.50;78.20
3418;DHT22;68007;51.312;12.372;2023-05-07T01:31:57;15.50;77.60
3418;DHT22;68007;51.312;12.372;2023-05-07T01:34:28;15.50;77.70
3418;DHT22;68007;51.312;12.372;2023-05-07T01:36:57;15.40;77.60
3418;DHT22;68007;51.312;12.372;2023-05-07T01:39:27;15.40;77.60
3418;DHT22;68007;51.312;12.372;2023-05-07T01:41:57;15.40;77.80
3418;DHT22;68007;51.312;12.372;2023-05-07T01:44:26;15.40;77.80
3418;DHT22;68007;51.312;12.372;2023-05-07T01:46:54;15.40;77.90
3418;DHT22;68007;51.312;12.372;2023-05-07T01:49:22;15.40;77.90
3418;DHT22;68007;51.312;12.372;2023-05-07T01:51:50;15.40;78.10
3418;DHT22;68007;51.312;12.372;2023-05-07T01:54:17;15.30;78.00
3418;DHT22;68007;51.312;12.372;2023-05-07T01:56:45;15.30;78.20
3418;DHT22;68007;51.312;12.372;2023-05-07T01:59:15;15.30;78.30
3418;DHT22;68007;51.312;12.372;2023-05-07T02:01:43;15.30;78.50
3418;DHT22;68007;51.312;12.372;2023-05-07T02:04:10;15.30;78.40
3418;DHT22;68007;51.312;12.372;2023-05-07T02:06:38;15.30;78.50
3418;DHT22;68007;51.312;12.372;2023-05-07T02:09:05;15.20;79.20
3418;DHT22;68007;51.312;12.372;2023-05-07T02:11:35;15.20;78.60
3418;DHT22;68007;51.312;12.372;2023-05-07T02:14:02;15.20;78.70
3418;DHT22;68007;51.312;12.372;2023-05-07T02:16:31;15.20;78.70
3418;DHT22;68007;51.312;12.372;2023-05-07T02:18:59;15.20;78.60
3418;DHT22;68007;51.312;12.372;2023-05-07T02:21:26;15.20;78.70
3418;DHT22;68007;51.312;12.372;2023-05-07T02:23:54;15.20;78.60
3418;DHT22;68007;51.312;12.372;2023-05-07T02:26:22;15.20;78.70
3418;DHT22;68007;51.312;12.372;2023-05-07T02:28:49;15.20;78.80
3418;DHT22;68007;51.312;12.372;2023-05-07T02:31:17;15.10;78.70
3418;DHT22;68007;51.312;12.372;2023-05-07T02:33:45;15.10;78.80
3418;DHT22;68007;51.312;12.372;2023-05-07T02:36:13;15.10;78.90
3418;DHT22;68007;51.312;12.372;2023-05-07T02:38:40;15.10;78.80
3418;DHT22;68007;51.312;12.372;2023-05-07T02:41:09;15.10;79.00
3418;DHT22;68007;51.312;12.372;2023-05-07T02:43:36;15.10;79.10
3418;DHT22;68007;51.312;12.372;2023-05-07T02:46:05;15.00;79.00
3418;DHT22;68007;51.312;12.372;2023-05-07T02:48:33;15.00;78.90
3418;DHT22;68007;51.312;12.372;2023-05-07T02:51:03;15.00;79.00
3418;DHT22;68007;51.312;12.372;2023-05-07T02:53:31;15.00;79.10
3418;DHT22;68007;51.312;12.372;2023-05-07T02:56:00;15.00;79.10
3418;DHT22;68007;51.312;12.372;2023-05-07T02:58:28;15.00;78.90
3418;DHT22;68007;51.312;12.372;2023-05-07T03:00:56;15.00;78.90
3418;DHT22;68007;51.312;12.372;2023-05-07T03:03:23;14.90;78.90
3418;DHT22;68007;51.312;12.372;2023-05-07T03:05:51;14.90;78.90
3418;DHT22;68007;51.312;12.372;2023-05-07T03:08:19;15.00;79.10
3418;DHT22;68007;51.312;12.372;2023-05-07T03:10:47;14.90;79.10
3418;DHT22;68007;51.312;12.372;2023-05-07T03:13:14;14.90;79.20
3418;DHT22;68007;51.312;12.372;2023-05-07T03:15:42;14.90;79.10
3418;DHT22;68007;51.312;12.372;2023-05-07T03:18:10;14.90;79.20
3418;DHT22;68007;51.312;12.372;2023-05-07T03:20:37;14.80;79.30
3418;DHT22;68007;51.312;12.372;2023-05-07T03:23:05;14.80;79.40
3418;DHT22;68007;51.312;12.372;2023-05-07T03:25:34;14.80;79.60
3418;DHT22;68007;51.312;12.372;2023-05-07T03:28:01;14.80;79.50
3418;DHT22;68007;51.312;12.372;2023-05-07T03:30:29;14.80;79.70
3418;DHT22;68007;51.312;12.372;2023-05-07T03:32:56;14.80;79.70
3418;DHT22;68007;51.312;12.372;2023-05-07T03:35:24;14.80;79.80
3418;DHT22;68007;51.312;12.372;2023-05-07T03:37:51;14.70;79.80
3418;DHT22;68007;51.312;12.372;2023-05-07T03:40:19;14.70;79.90
3418;DHT22;68007;51.312;12.372;2023-05-07T03:42:48;14.70;79.90
3418;DHT22;68007;51.312;12.372;2023-05-07T03:45:15;14.70;80.10
3418;DHT22;68007;51.312;12.372;2023-05-07T03:47:43;14.70;80.10
3418;DHT22;68007;51.312;12.372;2023-05-07T03:50:10;14.70;80.10
3418;DHT22;68007;51.312;12.372;2023-05-07T03:52:38;14.70;80.10
3418;DHT22;68007;51.312;12.372;2023-05-07T03:55:06;14.70;80.00
3418;DHT22;68007;51.312;12.372;2023-05-07T03:57:33;14.60;80.10
3418;DHT22;68007;51.312;12.372;2023-05-07T04:00:03;14.60;80.00
3418;DHT22;68007;51.312;12.372;2023-05-07T04:02:33;14.60;80.40
3418;DHT22;68007;51.312;12.372;2023-05-07T04:05:00;14.70;80.40
3418;DHT22;68007;51.312;12.372;2023-05-07T04:07:28;14.60;80.30
3418;DHT22;68007;51.312;12.372;2023-05-07T04:09:55;14.60;80.50
3418;DHT22;68007;51.312;12.372;2023-05-07T04:12:23;14.60;81.10
3418;DHT22;68007;51.312;12.372;2023-05-07T04:14:50;14.60;80.60
3418;DHT22;68007;51.312;12.372;2023-05-07T04:17:19;14.60;80.60
3418;DHT22;68007;51.312;12.372;2023-05-07T04:19:47;14.60;80.80
3418;DHT22;68007;51.312;12.372;2023-05-07T04:22:14;14.60;81.50
3418;DHT22;68007;51.312;12.372;2023-05-07T04:24:42;14.60;80.80
3418;DHT22;68007;51.312;12.372;2023-05-07T04:27:09;14.60;80.80
3418;DHT22;68007;51.312;12.372;2023-05-07T04:29:37;14.50;80.80
3418;DHT22;68007;51.312;12.372;2023-05-07T04:32:08;14.50;80.70
3418;DHT22;68007;51.312;12.372;2023-05-07T04:34:37;14.50;80.70
3418;DHT22;68007;51.312;12.372;2023-05-07T04:37:05;14.60;80.70
3418;DHT22;68007;51.312;12.372;2023-05-07T04:39:32;14.50;80.70
3418;DHT22;68007;51.312;12.372;2023-05-07T04:42:01;14.50;80.80
3418;DHT22;68007;51.312;12.372;2023-05-07T04:44:29;14.50;80.90
3418;DHT22;68007;51.312;12.372;2023-05-07T04:46:57;14.50;80.90
3418;DHT22;68007;51.312;12.372;2023-05-07T04:49:24;14.50;80.90
3418;DHT22;68007;51.312;12.372;2023-05-07T04:51:53;14.50;80.90
3418;DHT22;68007;51.312;12.372;2023-05-07T04:54:21;14.50;80.90
3418;DHT22;68007;51.312;12.372;2023-05-07T04:56:48;14.50;80.90
3418;DHT22;68007;51.312;12.372;2023-05-07T04:59:16;14.40;81.10
3418;DHT22;68007;51.312;12.372;2023-05-07T05:01:43;14.40;81.00
3418;DHT22;68007;51.312;12.372;2023-05-07T05:04:11;14.50;81.20
3418;DHT22;68007;51.312;12.372;2023-05-07T05:06:39;14.40;81.20
3418;DHT22;68007;51.312;12.372;2023-05-07T05:09:08;14.40;81.40
3418;DHT22;68007;51.312;12.372;2023-05-07T05:11:35;14.40;81.40
3418;DHT22;68007;51.312;12.372;2023-05-07T05:14:03;14.40;81.30
3418;DHT22;68007;51.312;12.372;2023-05-07T05:16:30;14.40;81.50
3418;DHT22;68007;51.312;12.372;2023-05-07T05:18:58;14.40;81.70
3418;DHT22;68007;51.312;12.372;2023-05-07T05:21:25;14.40;81.80
3418;DHT22;68007;51.312;12.372;2023-05-07T05:23:53;14.40;81.80
3418;DHT22;68007;51.312;12.372;2023-05-07T05:26:22;14.40;81.70
3418;DHT22;68007;51.312;12.372;2023-05-07T05:28:50;14.40;81.60
3418;DHT22;68007;51.312;12.372;2023-05-07T05:31:17;14.40;81.50
3418;DHT22;68007;51.312;12.372;2023-05-07T05:33:45;14.40;81.80
3418;DHT22;68007;51.312;12.372;2023-05-07T05:36:12;14.30;82.50
3418;DHT22;68007;51.312;12.372;2023-05-07T05:38:40;14.30;81.60
3418;DHT22;68007;51.312;12.372;2023-05-07T05:41:07;14.40;81.70
3418;DHT22;68007;51.312;12.372;2023-05-07T05:43:36;14.30;81.60
3418;DHT22;68007;51.312;12.372;2023-05-07T05:46:04;14.30;81.90
3418;DHT22;68007;51.312;12.372;2023-05-07T05:48:32;14.30;81.90
3418;DHT22;68007;51.312;12.372;2023-05-07T05:51:00;14.30;81.90
3418;DHT22;68007;51.312;12.372;2023-05-07T05:53:27;14.30;81.80
3418;DHT22;68007;51.312;12.372;2023-05-07T05:55:55;14.30;81.50
3418;DHT22;68007;51.312;12.372;2023-05-07T05:58:22;14.40;82.00
3418;DHT22;68007;51.312;12.372;2023-05-07T06:00:51;14.40;81.10
3418;DHT22;68007;51.312;12.372;2023-05-07T06:03:19;14.40;81.20
3418;DHT22;68007;51.312;12.372;2023-05-07T06:05:47;14.30;81.10
3418;DHT22;68007;51.312;12.372;2023-05-07T06:08:14;14.30;81.10
3418;DHT22;68007;51.312;12.372;2023-05-07T06:10:42;14.30;81.30
3418;DHT22;68007;51.312;12.372;2023-05-07T06:13:09;14.30;81.50
3418;DHT22;68007;51.312;12.372;2023-05-07T06:15:37;14.30;81.60
3418;DHT22;68007;51.312;12.372;2023-05-07T06:18:05;14.30;82.30
3418;DHT22;68007;51.312;12.372;2023-05-07T06:20:33;14.30;81.70
3418;DHT22;68007;51.312;12.372;2023-05-07T06:23:00;14.30;81.80
3418;DHT22;68007;51.312;12.372;2023-05-07T06:25:28;14.30;81.80
3418;DHT22;68007;51.312;12.372;2023-05-07T06:27:55;14.30;81.70
3418;DHT22;68007;51.312;12.372;2023-05-07T06:30:23;14.30;81.60
3418;DHT22;68007;51.312;12.372;2023-05-07T06:32:51;14.30;81.60
3418;DHT22;68007;51.312;12.372;2023-05-07T06:35:19;14.40;81.50
3418;DHT22;68007;51.312;12.372;2023-05-07T06:37:47;14.30;81.50
3418;DHT22;68007;51.312;12.372;2023-05-07T06:40:14;14.40;81.50
3418;DHT22;68007;51.312;12.372;2023-05-07T06:42:42;14.40;81.10
3418;DHT22;68007;51.312;12.372;2023-05-07T06:45:11;14.40;81.20
3418;DHT22;68007;51.312;12.372;2023-05-07T06:47:38;14.30;81.20
3418;DHT22;68007;51.312;12.372;2023-05-07T06:50:07;14.30;81.20
3418;DHT22;68007;51.312;12.372;2023-05-07T06:52:37;14.40;81.20
3418;DHT22;68007;51.312;12.372;2023-05-07T06:55:06;14.30;81.20
3418;DHT22;68007;51.312;12.372;2023-05-07T06:57:33;14.30;81.50
3418;DHT22;68007;51.312;12.372;2023-05-07T07:00:01;14.30;81.30
3418;DHT22;68007;51.312;12.372;2023-05-07T07:02:28;14.30;81.60
3418;DHT22;68007;51.312;12.372;2023-05-07T07:04:56;14.30;81.40
3418;DHT22;68007;51.312;12.372;2023-05-07T07:07:23;14.30;81.60
3418;DHT22;68007;51.312;12.372;2023-05-07T07:09:52;14.30;81.50
3418;DHT22;68007;51.312;12.372;2023-05-07T07:12:20;14.30;82.00
3418;DHT22;68007;51.312;12.372;2023-05-07T07:14:48;14.30;81.20
3418;DHT22;68007;51.312;12.372;2023-05-07T07:17:16;14.20;81.90
3418;DHT22;68007;51.312;12.372;2023-05-07T07:19:43;14.30;81.40
3418;DHT22;68007;51.312;12.372;2023-05-07T07:22:11;14.30;81.40
3418;DHT22;68007;51.312;12.372;2023-05-07T07:24:39;14.30;81.00
3418;DHT22;68007;51.312;12.372;2023-05-07T07:27:07;14.30;81.20
3418;DHT22;68007;51.312;12.372;2023-05-07T07:29:35;14.30;81.00
3418;DHT22;68007;51.312;12.372;2023-05-07T07:32:03;14.30;81.00
3418;DHT22;68007;51.312;12.372;2023-05-07T07:34:30;14.30;81.00
3418;DHT22;68007;51.312;12.372;2023-05-07T07:36:58;14.30;80.90
3418;DHT22;68007;51.312;12.372;2023-05-07T07:39:31;14.30;80.90
3418;DHT22;68007;51.312;12.372;2023-05-07T07:41:59;14.30;81.40
3418;DHT22;68007;51.312;12.372;2023-05-07T07:44:28;14.30;80.60
3418;DHT22;68007;51.312;12.372;2023-05-07T07:46:56;14.40;80.20
3418;DHT22;68007;51.312;12.372;2023-05-07T07:49:23;14.40;79.80
3418;DHT22;68007;51.312;12.372;2023-05-07T07:51:51;14.40;79.70
3418;DHT22;68007;51.312;12.372;2023-05-07T07:54:18;14.40;79.90
3418;DHT22;68007;51.312;12.372;2023-05-07T07:56:46;14.40;79.70
3418;DHT22;68007;51.312;12.372;2023-05-07T07:59:13;14.30;79.70
3418;DHT22;68007;51.312;12.372;2023-05-07T08:01:46;14.40;80.00
3418;DHT22;68007;51.312;12.372;2023-05-07T08:04:16;14.30;80.50
3418;DHT22;68007;51.312;12.372;2023-05-07T08:06:43;14.40;79.50
3418;DHT22;68007;51.312;12.372;2023-05-07T08:09:11;14.40;79.70
3418;DHT22;68007;51.312;12.372;2023-05-07T08:11:39;14.30;79.40
3418;DHT22;68007;51.312;12.372;2023-05-07T08:14:06;14.30;79.20
3418;DHT22;68007;51.312;12.372;2023-05-07T08:16:34;14.40;79.20
3418;DHT22;68007;51.312;12.372;2023-05-07T08:19:03;14.40;79.20
3418;DHT22;68007;51.312;12.372;2023-05-07T08:21:30;14.40;79.10
3418;DHT22;68007;51.312;12.372;2023-05-07T08:23:58;14.40;79.40
3418;DHT22;68007;51.312;12.372;2023-05-07T08:26:25;14.40;79.30
3418;DHT22;68007;51.312;12.372;2023-05-07T08:28:53;14.40;79.20
3418;DHT22;68007;51.312;12.372;2023-05-07T08:31:20;14.40;79.20
3418;DHT22;68007;51.312;12.372;2023-05-07T08:33:48;14.40;79.00
3418;DHT22;68007;51.312;12.372;2023-05-07T08:36:17;14.30;79.40
3418;DHT22;68007;51.312;12.372;2023-05-07T08:38:45;14.40;79.00
3418;DHT22;68007;51.312;12.372;2023-05-07T08:41:12;14.40;79.20
3418;DHT22;68007;51.312;12.372;2023-05-07T08:43:41;14.30;79.20
3418;DHT22;68007;51.312;12.372;2023-05-07T08:46:09;14.40;79.30
3418;DHT22;68007;51.312;12.372;2023-05-07T08:48:37;14.30;79.40
3418;DHT22;68007;51.312;12.372;2023-05-07T08:51:05;14.30;79.10
3418;DHT22;68007;51.312;12.372;2023-05-07T08:53:35;14.40;79.20
3418;DHT22;68007;51.312;12.372;2023-05-07T08:56:04;14.30;79.10
3418;DHT22;68007;51.312;12.372;2023-05-07T08:58:31;14.40;79.10
3418;DHT22;68007;51.312;12.372;2023-05-07T09:01:01;14.40;79.00
3418;DHT22;68007;51.312;12.372;2023-05-07T09:03:30;14.40;79.20
3418;DHT22;68007;51.312;12.372;2023-05-07T09:05:58;14.40;79.30
3418;DHT22;68007;51.312;12.372;2023-05-07T09:08:26;14.50;79.40
3418;DHT22;68007;51.312;12.372;2023-05-07T09:10:55;14.50;79.10
3418;DHT22;68007;51.312;12.372;2023-05-07T09:13:23;14.40;79.40
3418;DHT22;68007;51.312;12.372;2023-05-07T09:15:51;14.40;79.20
3418;DHT22;68007;51.312;12.372;2023-05-07T09:18:18;14.40;79.20
3418;DHT22;68007;51.312;12.372;2023-05-07T09:20:46;14.40;79.00
3418;DHT22;68007;51.312;12.372;2023-05-07T09:23:14;14.50;78.90
3418;DHT22;68007;51.312;12.372;2023-05-07T09:25:41;14.50;79.00
3418;DHT22;68007;51.312;12.372;2023-05-07T09:28:10;14.50;79.20
3418;DHT22;68007;51.312;12.372;2023-05-07T09:30:38;14.50;79.00
3418;DHT22;68007;51.312;12.372;2023-05-07T09:33:05;14.40;79.20
3418;DHT22;68007;51.312;12.372;2023-05-07T09:35:33;14.50;79.10
3418;DHT22;68007;51.312;12.372;2023-05-07T09:38:01;14.50;79.10
3418;DHT22;68007;51.312;12.372;2023-05-07T09:40:30;14.50;79.00
3418;DHT22;68007;51.312;12.372;2023-05-07T09:43:10;14.50;79.00
3418;DHT22;68007;51.312;12.372;2023-05-07T09:45:38;14.50;79.10
3418;DHT22;68007;51.312;12.372;2023-05-07T09:48:06;14.50;79.10
3418;DHT22;68007;51.312;12.372;2023-05-07T09:50:36;14.50;78.60
3418;DHT22;68007;51.312;12.372;2023-05-07T09:53:10;14.50;79.10
3418;DHT22;68007;51.312;12.372;2023-05-07T09:55:38;14.50;78.70
3418;DHT22;68007;51.312;12.372;2023-05-07T09:58:06;14.50;78.70
3418;DHT22;68007;51.312;12.372;2023-05-07T10:00:37;14.50;78.80
3418;DHT22;68007;51.312;12.372;2023-05-07T10:03:08;14.50;78.70
3418;DHT22;68007;51.312;12.372;2023-05-07T10:05:36;14.50;78.60
3418;DHT22;68007;51.312;12.372;2023-05-07T10:08:04;14.50;79.00
3418;DHT22;68007;51.312;12.372;2023-05-07T10:10:32;14.50;79.20
3418;DHT22;68007;51.312;12.372;2023-05-07T10:13:01;14.50;79.20
3418;DHT22;68007;51.312;12.372;2023-05-07T10:15:32;14.50;79.40
3418;DHT22;68007;51.312;12.372;2023-05-07T10:18:01;14.50;79.20
3418;DHT22;68007;51.312;12.372;2023-05-07T10:20:30;14.50;78.90
3418;DHT22;68007;51.312;12.372;2023-05-07T10:22:58;14.50;79.30
3418;DHT22;68007;51.312;12.372;2023-05-07T10:25:28;14.50;79.40
3418;DHT22;68007;51.312;12.372;2023-05-07T10:27:59;14.60;79.60
3418;DHT22;68007;51.312;12.372;2023-05-07T10:30:35;14.60;79.80
3418;DHT22;68007;51.312;12.372;2023-05-07T10:33:09;14.60;79.40
3418;DHT22;68007;51.312;12.372;2023-05-07T10:35:39;14.60;79.40
3418;DHT22;68007;51.312;12.372;2023-05-07T10:38:09;14.60;79.00
3418;DHT22;68007;51.312;12.372;2023-05-07T10:40:37;14.60;79.40
3418;DHT22;68007;51.312;12.372;2023-05-07T10:43:05;14.60;79.30
3418;DHT22;68007;51.312;12.372;2023-05-07T10:45:33;14.60;79.50
3418;DHT22;68007;51.312;12.372;2023-05-07T10:48:10;14.60;79.50
3418;DHT22;68007;51.312;12.372;2023-05-07T10:50:38;14.70;79.00
3418;DHT22;68007;51.312;12.372;2023-05-07T10:53:22;14.60;78.70
3418;DHT22;68007;51.312;12.372;2023-05-07T10:56:26;14.60;78.40
3418;DHT22;68007;51.312;12.372;2023-05-07T10:58:54;14.60;78.30
3418;DHT22;68007;51.312;12.372;2023-05-07T11:01:50;14.60;79.20
3418;DHT22;68007;51.312;12.372;2023-05-07T11:04:20;14.70;78.50
3418;DHT22;68007;51.312;12.372;2023-05-07T11:07:23;14.60;78.60
3418;DHT22;68007;51.312;12.372;2023-05-07T11:09:58;14.60;78.40
3418;DHT22;68007;51.312;12.372;2023-05-07T11:12:46;14.60;78.80
3418;DHT22;68007;51.312;12.372;2023-05-07T11:15:14;14.70;78.90
3418;DHT22;68007;51.312;12.372;2023-05-07T11:17:55;14.70;78.80
3418;DHT22;68007;51.312;12.372;2023-05-07T11:20:45;14.70;78.90
3418;DHT22;68007;51.312;12.372;2023-05-07T11:26:18;14.70;78.70
3418;DHT22;68007;51.312;12.372;2023-05-07T11:28:46;14.70;78.80
3418;DHT22;68007;51.312;12.372;2023-05-07T11:31:13;14.70;78.50
3418;DHT22;68007;51.312;12.372;2023-05-07T11:33:43;14.70;78.20
3418;DHT22;68007;51.312;12.372;2023-05-07T11:36:13;14.70;78.30
3418;DHT22;68007;51.312;12.372;2023-05-07T11:38:40;14.80;78.00
3418;DHT22;68007;51.312;12.372;2023-05-07T11:41:08;14.70;78.20
3418;DHT22;68007;51.312;12.372;2023-05-07T11:43:36;14.80;78.20
3418;DHT22;68007;51.312;12.372;2023-05-07T11:46:08;14.80;78.30
3418;DHT22;68007;51.312;12.372;2023-05-07T11:48:36;14.80;78.20
3418;DHT22;68007;51.312;12.372;2023-05-07T11:51:05;14.80;78.30
3418;DHT22;68007;51.312;12.372;2023-05-07T11:53:41;14.80;78.50
3418;DHT22;68007;51.312;12.372;2023-05-07T11:56:09;14.80;78.60
3418;DHT22;68007;51.312;12.372;2023-05-07T11:58:37;14.80;78.50
3418;DHT22;68007;51.312;12.372;2023-05-07T12:01:07;14.90;78.30
3418;DHT22;68007;51.312;12.372;2023-05-07T12:03:35;14.90;78.50
3418;DHT22;68007;51.312;12.372;2023-05-07T12:06:05;14.90;78.40
3418;DHT22;68007;51.312;12.372;2023-05-07T12:08:36;14.90;78.20
3418;DHT22;68007;51.312;12.372;2023-05-07T12:11:07;14.90;78.10
3418;DHT22;68007;51.312;12.372;2023-05-07T12:13:35;14.90;77.90
3418;DHT22;68007;51.312;12.372;2023-05-07T12:16:05;14.90;77.80
3418;DHT22;68007;51.312;12.372;2023-05-07T12:18:34;14.90;77.80
3418;DHT22;68007;51.312;12.372;2023-05-07T12:21:03;14.90;77.90
3418;DHT22;68007;51.312;12.372;2023-05-07T12:23:31;15.00;77.90
3418;DHT22;68007;51.312;12.372;2023-05-07T12:25:59;14.90;78.00
3418;DHT22;68007;51.312;12.372;2023-05-07T12:28:28;14.90;78.10
3418;DHT22;68007;51.312;12.372;2023-05-07T12:30:57;14.90;78.10
3418;DHT22;68007;51.312;12.372;2023-05-07T12:33:26;15.00;77.90
3418;DHT22;68007;51.312;12.372;2023-05-07T12:35:55;15.00;77.90
3418;DHT22;68007;51.312;12.372;2023-05-07T12:38:23;15.00;77.70
3418;DHT22;68007;51.312;12.372;2023-05-07T12:40:54;15.00;77.70
3418;DHT22;68007;51.312;12.372;2023-05-07T12:43:24;15.00;77.50
3418;DHT22;68007;51.312;12.372;2023-05-07T12:45:55;15.00;77.90
3418;DHT22;68007;51.312;12.372;2023-05-07T12:48:23;15.00;77.80
3418;DHT22;68007;51.312;12.372;2023-05-07T12:50:53;15.10;77.70
3418;DHT22;68007;51.312;12.372;2023-05-07T12:53:22;15.10;77.70
3418;DHT22;68007;51.312;12.372;2023-05-07T12:55:51;15.10;77.80
3418;DHT22;68007;51.312;12.372;2023-05-07T12:58:20;15.10;78.90
3418;DHT22;68007;51.312;12.372;2023-05-07T13:00:49;15.10;79.20
3418;DHT22;68007;51.312;12.372;2023-05-07T13:03:23;15.10;78.60
3418;DHT22;68007;51.312;12.372;2023-05-07T13:05:51;15.20;78.30
3418;DHT22;68007;51.312;12.372;2023-05-07T13:08:31;15.20;78.20
3418;DHT22;68007;51.312;12.372;2023-05-07T13:10:59;15.20;78.30
3418;DHT22;68007;51.312;12.372;2023-05-07T13:13:29;15.20;77.50
3418;DHT22;68007;51.312;12.372;2023-05-07T13:15:57;15.30;77.40
3418;DHT22;68007;51.312;12.372;2023-05-07T13:18:26;15.30;77.00
3418;DHT22;68007;51.312;12.372;2023-05-07T13:20:54;15.20;76.70
3418;DHT22;68007;51.312;12.372;2023-05-07T13:23:22;15.20;77.50
3418;DHT22;68007;51.312;12.372;2023-05-07T13:25:49;15.30;77.30
3418;DHT22;68007;51.312;12.372;2023-05-07T13:28:18;15.30;77.20
3418;DHT22;68007;51.312;12.372;2023-05-07T13:30:46;15.30;77.10
3418;DHT22;68007;51.312;12.372;2023-05-07T13:33:14;15.30;77.10
3418;DHT22;68007;51.312;12.372;2023-05-07T13:35:43;15.40;76.90
3418;DHT22;68007;51.312;12.372;2023-05-07T13:38:10;15.40;76.90
3418;DHT22;68007;51.312;12.372;2023-05-07T13:40:38;15.40;76.90
3418;DHT22;68007;51.312;12.372;2023-05-07T13:43:05;15.40;76.70
3418;DHT22;68007;51.312;12.372;2023-05-07T13:45:34;15.50;76.70
3418;DHT22;68007;51.312;12.372;2023-05-07T13:48:01;15.50;76.70
3418;DHT22;68007;51.312;12.372;2023-05-07T13:50:29;15.40;77.30
3418;DHT22;68007;51.312;12.372;2023-05-07T13:52:58;15.50;76.80
3418;DHT22;68007;51.312;12.372;2023-05-07T13:55:25;15.50;76.70
3418;DHT22;68007;51.312;12.372;2023-05-07T13:57:56;15.50;76.60
3418;DHT22;68007;51.312;12.372;2023-05-07T14:00:24;15.50;76.50
3418;DHT22;68007;51.312;12.372;2023-05-07T14:02:52;15.60;76.40
3418;DHT22;68007;51.312;12.372;2023-05-07T14:05:20;15.60;76.60
3418;DHT22;68007;51.312;12.372;2023-05-07T14:07:49;15.60;76.50
3418;DHT22;68007;51.312;12.372;2023-05-07T14:10:19;15.60;76.60
3418;DHT22;68007;51.312;12.372;2023-05-07T14:12:47;15.60;76.50
3418;DHT22;68007;51.312;12.372;2023-05-07T14:15:14;15.60;76.70
3418;DHT22;68007;51.312;12.372;2023-05-07T14:17:42;15.60;76.90
3418;DHT22;68007;51.312;12.372;2023-05-07T14:20:11;15.60;76.80
3418;DHT22;68007;51.312;12.372;2023-05-07T14:22:39;15.60;77.00
3418;DHT22;68007;51.312;12.372;2023-05-07T14:25:07;15.70;76.80
3418;DHT22;68007;51.312;12.372;2023-05-07T14:27:38;15.70;76.60
3418;DHT22;68007;51.312;12.372;2023-05-07T14:30:06;15.70;76.60
3418;DHT22;68007;51.312;12.372;2023-05-07T14:32:34;15.70;76.50
3418;DHT22;68007;51.312;12.372;2023-05-07T14:35:02;15.70;76.50
3418;DHT22;68007;51.312;12.372;2023-05-07T14:37:29;15.70;76.30
3418;DHT22;68007;51.312;12.372;2023-05-07T14:39:57;15.70;76.20
3418;DHT22;68007;51.312;12.372;2023-05-07T14:42:24;15.70;76.20
3418;DHT22;68007;51.312;12.372;2023-05-07T14:44:53;15.70;76.30
3418;DHT22;68007;51.312;12.372;2023-05-07T14:47:21;15.80;76.20
3418;DHT22;68007;51.312;12.372;2023-05-07T14:49:48;15.80;76.80
3418;DHT22;68007;51.312;12.372;2023-05-07T14:52:16;15.80;76.10
3418;DHT22;68007;51.312;12.372;2023-05-07T14:54:43;15.80;76.20
3418;DHT22;68007;51.312;12.372;2023-05-07T14:57:13;15.80;76.00
3418;DHT22;68007;51.312;12.372;2023-05-07T14:59:42;15.80;75.80
3418;DHT22;68007;51.312;12.372;2023-05-07T15:02:11;15.80;75.40
3418;DHT22;68007;51.312;12.372;2023-05-07T15:04:39;15.80;75.60
3418;DHT22;68007;51.312;12.372;2023-05-07T15:07:11;15.80;75.70
3418;DHT22;68007;51.312;12.372;2023-05-07T15:09:41;15.80;75.90
3418;DHT22;68007;51.312;12.372;2023-05-07T15:12:08;15.90;76.20
3418;DHT22;68007;51.312;12.372;2023-05-07T15:14:37;15.90;75.60
3418;DHT22;68007;51.312;12.372;2023-05-07T15:17:05;15.90;75.40
3418;DHT22;68007;51.312;12.372;2023-05-07T15:19:34;15.90;75.20
3418;DHT22;68007;51.312;12.372;2023-05-07T15:22:02;16.00;75.40
3418;DHT22;68007;51.312;12.372;2023-05-07T15:24:30;16.00;76.00
3418;DHT22;68007;51.312;12.372;2023-05-07T15:26:57;16.00;75.20
3418;DHT22;68007;51.312;12.372;2023-05-07T15:29:25;16.00;75.10
3418;DHT22;68007;51.312;12.372;2023-05-07T15:31:52;16.00;75.30
3418;DHT22;68007;51.312;12.372;2023-05-07T15:34:22;16.00;75.00
3418;DHT22;68007;51.312;12.372;2023-05-07T15:36:51;16.00;75.00
3418;DHT22;68007;51.312;12.372;2023-05-07T15:39:19;16.00;75.10
3418;DHT22;68007;51.312;12.372;2023-05-07T15:41:46;16.00;75.10